Orumieh, Iran
Current Conditions -  °F | °C
As of 5:30 PM on Saturday 22 Nov 2014 (Local Time) from OITR Reporting Station
Broken Clouds Broken Clouds  
Wind Chill: 38°   Ceiling: 9000
Heat Index: 41°   Visibility: 6mi
Dew Point: 37°   Wind: 5mph
Humidity: 87%   Direction: 280°W
Pressure: 29.77"   Gusts: NA
Location:  37.53°N, 45.08°E
Report Text: OITR 221430Z 28004KT 9999 FEW030CB SCT035 BKN090 05/03 Q1008
Loading
Personal Weather Stations






























Interactive Weather Map New forecast layout! Learn more

10-Day Weather Forecast

Advertisements
Track Severe Weather on mobile